ACA861 EGLL-CYQX
Flight info
| Callsign | ACA861 |
|---|---|
| Flight time | 4h 48m |
| Altitude | 34000 |
| Route | CPT DCT DIDZA L9 OKSAW DCT BIBPE DCT BUCGO DCT FELCA DCT OFSOX DCT SLANY DCT MALOT/M083F360 DCT 53N020W 53N030W 53N040W 51N050W DCT ALLRY/N0474F360 DCT YQX |
| Aircraft | L101/H-SDFHIRWXY/S |
Departure
| Time | 2026-04-21 17:21 |
|---|---|
| Airport | London Heathrow Airport (EGLL) |
Arrival
| Time | 2026-04-21 22:09 |
|---|---|
| Airport | Gander International Airport (CYQX) |
| Time | Latitude | Longitude | Altitude | Speed | Heading |
|---|---|---|---|---|---|
| 2026-04-21 16:39 | 51.47267 | -0.44402 | 91 ft | 0 kts | 89° |
| 2026-04-21 17:06 | 51.47266 | -0.44429 | 91 ft | 3 kts | 89° |
| 2026-04-21 17:06 | 51.47266 | -0.44465 | 91 ft | 4 kts | 89° |
| 2026-04-21 17:06 | 51.47266 | -0.44496 | 91 ft | 2 kts | 90° |
| 2026-04-21 17:06 | 51.47269 | -0.44529 | 91 ft | 3 kts | 121° |
| 2026-04-21 17:07 | 51.47277 | -0.44547 | 95 ft | 3 kts | 146° |
| 2026-04-21 17:07 | 51.47303 | -0.44561 | 94 ft | 3 kts | 180° |
| 2026-04-21 17:07 | 51.47312 | -0.44561 | 91 ft | 0 kts | 180° |
| 2026-04-21 17:11 | 51.47311 | -0.44561 | 91 ft | 1 kts | 180° |
| 2026-04-21 17:11 | 51.47291 | -0.44561 | 95 ft | 5 kts | 180° |
| 2026-04-21 17:12 | 51.47242 | -0.44560 | 93 ft | 9 kts | 179° |
| 2026-04-21 17:12 | 51.47171 | -0.44558 | 91 ft | 11 kts | 179° |
| 2026-04-21 17:12 | 51.47084 | -0.44557 | 91 ft | 14 kts | 180° |
| 2026-04-21 17:12 | 51.46982 | -0.44556 | 92 ft | 16 kts | 179° |
| 2026-04-21 17:13 | 51.46866 | -0.44554 | 91 ft | 18 kts | 179° |
| 2026-04-21 17:13 | 51.46765 | -0.44554 | 94 ft | 13 kts | 180° |
| 2026-04-21 17:13 | 51.46691 | -0.44563 | 95 ft | 9 kts | 206° |
| 2026-04-21 17:13 | 51.46666 | -0.44652 | 92 ft | 10 kts | 260° |
| 2026-04-21 17:14 | 51.46664 | -0.44775 | 91 ft | 12 kts | 271° |
| 2026-04-21 17:14 | 51.46664 | -0.44926 | 91 ft | 15 kts | 269° |
| 2026-04-21 17:14 | 51.46663 | -0.45104 | 98 ft | 17 kts | 270° |
| 2026-04-21 17:14 | 51.46663 | -0.45311 | 91 ft | 20 kts | 270° |
| 2026-04-21 17:15 | 51.46663 | -0.45541 | 91 ft | 22 kts | 270° |
| 2026-04-21 17:15 | 51.46662 | -0.45786 | 91 ft | 21 kts | 269° |
| 2026-04-21 17:15 | 51.46660 | -0.46010 | 94 ft | 20 kts | 268° |
| 2026-04-21 17:15 | 51.46655 | -0.46245 | 94 ft | 22 kts | 270° |
| 2026-04-21 17:16 | 51.46659 | -0.46486 | 95 ft | 20 kts | 270° |
| 2026-04-21 17:16 | 51.46658 | -0.46717 | 94 ft | 21 kts | 270° |
| 2026-04-21 17:16 | 51.46657 | -0.46965 | 94 ft | 23 kts | 269° |
| 2026-04-21 17:16 | 51.46656 | -0.47146 | 94 ft | 25 kts | 270° |
| 2026-04-21 17:17 | 51.46656 | -0.47428 | 94 ft | 25 kts | 269° |
| 2026-04-21 17:17 | 51.46655 | -0.47695 | 94 ft | 24 kts | 269° |
| 2026-04-21 17:17 | 51.46655 | -0.47963 | 94 ft | 24 kts | 270° |
| 2026-04-21 17:17 | 51.46654 | -0.48241 | 91 ft | 26 kts | 271° |
| 2026-04-21 17:18 | 51.46653 | -0.48520 | 91 ft | 22 kts | 270° |
| 2026-04-21 17:18 | 51.46649 | -0.48702 | 92 ft | 12 kts | 255° |
| 2026-04-21 17:18 | 51.46607 | -0.48762 | 95 ft | 4 kts | 202° |
| 2026-04-21 17:18 | 51.46606 | -0.48762 | 94 ft | 0 kts | 202° |
| 2026-04-21 17:19 | 51.46597 | -0.48768 | 91 ft | 3 kts | 202° |
| 2026-04-21 17:20 | 51.46563 | -0.48786 | 92 ft | 7 kts | 193° |
| 2026-04-21 17:20 | 51.46506 | -0.48770 | 91 ft | 10 kts | 148° |
| 2026-04-21 17:20 | 51.46479 | -0.48671 | 94 ft | 12 kts | 93° |
| 2026-04-21 17:20 | 51.46479 | -0.48279 | 93 ft | 69 kts | 90° |
| 2026-04-21 17:21 | 51.46482 | -0.47112 | 96 ft | 140 kts | 90° |
| 2026-04-21 17:21 | 51.46473 | -0.45381 | 654 ft | 161 kts | 89° |
| 2026-04-21 17:21 | 51.46458 | -0.43547 | 1585 ft | 169 kts | 88° |
| 2026-04-21 17:21 | 51.46427 | -0.41649 | 2660 ft | 175 kts | 95° |
| 2026-04-21 17:22 | 51.45948 | -0.39713 | 3098 ft | 205 kts | 121° |
| 2026-04-21 17:22 | 51.44741 | -0.38239 | 3398 ft | 236 kts | 153° |
| 2026-04-21 17:22 | 51.43032 | -0.37888 | 3724 ft | 267 kts | 184° |
| 2026-04-21 17:22 | 51.41180 | -0.38878 | 4189 ft | 294 kts | 209° |
| 2026-04-21 17:23 | 51.39638 | -0.41095 | 5048 ft | 304 kts | 231° |
| 2026-04-21 17:23 | 51.38735 | -0.44099 | 6191 ft | 297 kts | 255° |
| 2026-04-21 17:23 | 51.38617 | -0.47309 | 7419 ft | 285 kts | 277° |
| 2026-04-21 17:23 | 51.38952 | -0.50420 | 8294 ft | 286 kts | 284° |
| 2026-04-21 17:24 | 51.39464 | -0.53438 | 9035 ft | 276 kts | 289° |
| 2026-04-21 17:24 | 51.40103 | -0.56427 | 9693 ft | 292 kts | 291° |
| 2026-04-21 17:24 | 51.40840 | -0.59557 | 10286 ft | 308 kts | 293° |
| 2026-04-21 17:24 | 51.41612 | -0.62689 | 11233 ft | 295 kts | 293° |
| 2026-04-21 17:25 | 51.42368 | -0.65693 | 12269 ft | 290 kts | 294° |
| 2026-04-21 17:25 | 51.43141 | -0.68741 | 12799 ft | 305 kts | 294° |
| 2026-04-21 17:25 | 51.43978 | -0.72016 | 12974 ft | 330 kts | 294° |
| 2026-04-21 17:25 | 51.44883 | -0.75538 | 13086 ft | 353 kts | 294° |
| 2026-04-21 17:26 | 51.45859 | -0.79347 | 13189 ft | 374 kts | 293° |
| 2026-04-21 17:26 | 51.46855 | -0.83253 | 13334 ft | 393 kts | 294° |
| 2026-04-21 17:26 | 51.47904 | -0.87392 | 13598 ft | 405 kts | 293° |
| 2026-04-21 17:26 | 51.48957 | -0.91568 | 14437 ft | 400 kts | 293° |
| 2026-04-21 17:27 | 51.49991 | -0.95709 | 15240 ft | 386 kts | 294° |
| 2026-04-21 17:27 | 51.50930 | -0.99497 | 15437 ft | 354 kts | 294° |
| 2026-04-21 17:27 | 51.51821 | -1.03127 | 15591 ft | 351 kts | 294° |
| 2026-04-21 17:27 | 51.52725 | -1.06769 | 15697 ft | 360 kts | 292° |
| 2026-04-21 17:28 | 51.53660 | -1.10526 | 15819 ft | 363 kts | 294° |
| 2026-04-21 17:28 | 51.54592 | -1.14282 | 15928 ft | 360 kts | 294° |
| 2026-04-21 17:28 | 51.55527 | -1.18067 | 16068 ft | 359 kts | 292° |
| 2026-04-21 17:28 | 51.56440 | -1.21797 | 16199 ft | 359 kts | 293° |
| 2026-04-21 17:29 | 51.57354 | -1.25549 | 16318 ft | 361 kts | 292° |
| 2026-04-21 17:29 | 51.58260 | -1.29273 | 16462 ft | 364 kts | 292° |
| 2026-04-21 17:29 | 51.59182 | -1.33069 | 16585 ft | 364 kts | 292° |
| 2026-04-21 17:29 | 51.60105 | -1.36850 | 16720 ft | 363 kts | 294° |
| 2026-04-21 17:30 | 51.61164 | -1.40546 | 16869 ft | 363 kts | 298° |
| 2026-04-21 17:30 | 51.62346 | -1.44138 | 17000 ft | 363 kts | 300° |
| 2026-04-21 17:30 | 51.63536 | -1.47723 | 17152 ft | 362 kts | 300° |
| 2026-04-21 17:30 | 51.64718 | -1.51346 | 17281 ft | 360 kts | 299° |
| 2026-04-21 17:31 | 51.65879 | -1.54910 | 17404 ft | 360 kts | 299° |
| 2026-04-21 17:31 | 51.67049 | -1.58483 | 17549 ft | 360 kts | 299° |
| 2026-04-21 17:31 | 51.68203 | -1.61998 | 17690 ft | 359 kts | 300° |
| 2026-04-21 17:31 | 51.69308 | -1.65652 | 17774 ft | 358 kts | 293° |
| 2026-04-21 17:32 | 51.69990 | -1.69460 | 17897 ft | 360 kts | 282° |
| 2026-04-21 17:32 | 51.70376 | -1.73457 | 18073 ft | 362 kts | 280° |
| 2026-04-21 17:32 | 51.70720 | -1.77488 | 18198 ft | 362 kts | 280° |
| 2026-04-21 17:32 | 51.71098 | -1.81500 | 18335 ft | 362 kts | 280° |
| 2026-04-21 17:33 | 51.71464 | -1.85528 | 18476 ft | 363 kts | 280° |
| 2026-04-21 17:33 | 51.71778 | -1.89567 | 18594 ft | 363 kts | 278° |
| 2026-04-21 17:33 | 51.72086 | -1.93619 | 18718 ft | 365 kts | 278° |
| 2026-04-21 17:33 | 51.72397 | -1.97678 | 18815 ft | 363 kts | 279° |
| 2026-04-21 17:34 | 51.72706 | -2.01690 | 18915 ft | 359 kts | 279° |
| 2026-04-21 17:34 | 51.73005 | -2.05689 | 19047 ft | 358 kts | 279° |
| 2026-04-21 17:34 | 51.73294 | -2.09662 | 19162 ft | 357 kts | 279° |
| 2026-04-21 17:34 | 51.73581 | -2.13643 | 19293 ft | 358 kts | 279° |
| 2026-04-21 17:35 | 51.73864 | -2.17639 | 19401 ft | 359 kts | 278° |
| 2026-04-21 17:35 | 51.74146 | -2.21640 | 19519 ft | 359 kts | 278° |
| 2026-04-21 17:35 | 51.74425 | -2.25644 | 19645 ft | 359 kts | 278° |
| 2026-04-21 17:35 | 51.74702 | -2.29654 | 19759 ft | 359 kts | 278° |
| 2026-04-21 17:36 | 51.74977 | -2.33660 | 19877 ft | 359 kts | 278° |
| 2026-04-21 17:36 | 51.75251 | -2.37662 | 20010 ft | 358 kts | 278° |
| 2026-04-21 17:36 | 51.75524 | -2.41663 | 20129 ft | 359 kts | 278° |
| 2026-04-21 17:36 | 51.75797 | -2.45669 | 20230 ft | 360 kts | 278° |
| 2026-04-21 17:37 | 51.76069 | -2.49684 | 20366 ft | 360 kts | 278° |
| 2026-04-21 17:37 | 51.76339 | -2.53700 | 20483 ft | 360 kts | 278° |
| 2026-04-21 17:37 | 51.76517 | -2.56369 | 20559 ft | 360 kts | 278° |
| 2026-04-21 17:37 | 51.76787 | -2.61762 | 20735 ft | 361 kts | 276° |
| 2026-04-21 17:38 | 51.76999 | -2.65803 | 20850 ft | 361 kts | 278° |
| 2026-04-21 17:38 | 51.77272 | -2.69819 | 20989 ft | 360 kts | 279° |
| 2026-04-21 17:38 | 51.77565 | -2.73783 | 21109 ft | 360 kts | 279° |
| 2026-04-21 17:38 | 51.77850 | -2.77802 | 21252 ft | 361 kts | 278° |
| 2026-04-21 17:39 | 51.78115 | -2.81830 | 21525 ft | 361 kts | 278° |
| 2026-04-21 17:39 | 51.78371 | -2.85850 | 21656 ft | 361 kts | 278° |
| 2026-04-21 17:39 | 51.78628 | -2.89889 | 21786 ft | 361 kts | 278° |
| 2026-04-21 17:39 | 51.78885 | -2.93918 | 21908 ft | 361 kts | 278° |
| 2026-04-21 17:40 | 51.79142 | -2.97960 | 22033 ft | 361 kts | 278° |
| 2026-04-21 17:40 | 51.79397 | -3.01994 | 22161 ft | 361 kts | 278° |
| 2026-04-21 17:40 | 51.79649 | -3.06030 | 22291 ft | 362 kts | 278° |
| 2026-04-21 17:40 | 51.79901 | -3.10074 | 22406 ft | 362 kts | 278° |
| 2026-04-21 17:41 | 51.80151 | -3.14121 | 22526 ft | 362 kts | 278° |
| 2026-04-21 17:41 | 51.80400 | -3.18168 | 22649 ft | 362 kts | 278° |
| 2026-04-21 17:41 | 51.80648 | -3.22215 | 22770 ft | 362 kts | 278° |
| 2026-04-21 17:41 | 51.80894 | -3.26263 | 22891 ft | 362 kts | 278° |
| 2026-04-21 17:42 | 51.81139 | -3.30312 | 23018 ft | 362 kts | 278° |
| 2026-04-21 17:42 | 51.81383 | -3.34368 | 23136 ft | 363 kts | 278° |
| 2026-04-21 17:42 | 51.81627 | -3.38423 | 23259 ft | 363 kts | 277° |
| 2026-04-21 17:42 | 51.81869 | -3.42480 | 23373 ft | 363 kts | 277° |
| 2026-04-21 17:43 | 51.82112 | -3.46552 | 23481 ft | 364 kts | 277° |
| 2026-04-21 17:43 | 51.82359 | -3.50623 | 23625 ft | 364 kts | 278° |
| 2026-04-21 17:43 | 51.82741 | -3.54667 | 23753 ft | 364 kts | 282° |
| 2026-04-21 17:43 | 51.83254 | -3.58669 | 23872 ft | 364 kts | 283° |
| 2026-04-21 17:44 | 51.83763 | -3.62672 | 24003 ft | 364 kts | 282° |
| 2026-04-21 17:44 | 51.84239 | -3.66700 | 24105 ft | 365 kts | 282° |
| 2026-04-21 17:44 | 51.84712 | -3.70729 | 24233 ft | 365 kts | 282° |
| 2026-04-21 17:44 | 51.85204 | -3.74762 | 24348 ft | 366 kts | 283° |
| 2026-04-21 17:45 | 51.85716 | -3.78793 | 24469 ft | 366 kts | 283° |
| 2026-04-21 17:45 | 51.86236 | -3.82835 | 24592 ft | 368 kts | 283° |
| 2026-04-21 17:45 | 51.86757 | -3.86887 | 24705 ft | 368 kts | 283° |
| 2026-04-21 17:45 | 51.87278 | -3.90944 | 24803 ft | 369 kts | 282° |
| 2026-04-21 17:46 | 51.87800 | -3.95015 | 24925 ft | 371 kts | 282° |
| 2026-04-21 17:46 | 51.88315 | -3.99056 | 25047 ft | 371 kts | 282° |
| 2026-04-21 17:46 | 51.88835 | -4.03154 | 25162 ft | 372 kts | 282° |
| 2026-04-21 17:46 | 51.89355 | -4.07262 | 25290 ft | 373 kts | 282° |
| 2026-04-21 17:47 | 51.89876 | -4.11380 | 25401 ft | 373 kts | 282° |
| 2026-04-21 17:47 | 51.90397 | -4.15504 | 25521 ft | 374 kts | 282° |
| 2026-04-21 17:47 | 51.90917 | -4.19635 | 25647 ft | 375 kts | 282° |
| 2026-04-21 17:47 | 51.91438 | -4.23781 | 25763 ft | 376 kts | 282° |
| 2026-04-21 17:48 | 51.91782 | -4.26532 | 25833 ft | 376 kts | 282° |
| 2026-04-21 17:48 | 51.92477 | -4.32087 | 26008 ft | 377 kts | 282° |
| 2026-04-21 17:48 | 51.92995 | -4.36252 | 26137 ft | 378 kts | 282° |
| 2026-04-21 17:48 | 51.93514 | -4.40428 | 26258 ft | 378 kts | 282° |
| 2026-04-21 17:49 | 51.94033 | -4.44617 | 26383 ft | 380 kts | 281° |
| 2026-04-21 17:49 | 51.94551 | -4.48822 | 26511 ft | 381 kts | 281° |
| 2026-04-21 17:49 | 51.95068 | -4.53037 | 26636 ft | 382 kts | 281° |
| 2026-04-21 17:49 | 51.95585 | -4.57261 | 26765 ft | 382 kts | 281° |
| 2026-04-21 17:50 | 51.96102 | -4.61497 | 26888 ft | 383 kts | 281° |
| 2026-04-21 17:50 | 51.96618 | -4.65731 | 27027 ft | 383 kts | 281° |
| 2026-04-21 17:50 | 51.97134 | -4.69978 | 27156 ft | 384 kts | 281° |
| 2026-04-21 17:50 | 51.97650 | -4.74236 | 27288 ft | 385 kts | 281° |
| 2026-04-21 17:51 | 51.98164 | -4.78501 | 27418 ft | 386 kts | 281° |
| 2026-04-21 17:51 | 51.98678 | -4.82773 | 27544 ft | 386 kts | 281° |
| 2026-04-21 17:51 | 51.99193 | -4.87057 | 27678 ft | 387 kts | 281° |
| 2026-04-21 17:51 | 51.99706 | -4.91349 | 27789 ft | 388 kts | 281° |
| 2026-04-21 17:52 | 52.00220 | -4.95665 | 27929 ft | 391 kts | 281° |
| 2026-04-21 17:52 | 52.00736 | -5.00014 | 28058 ft | 393 kts | 281° |
| 2026-04-21 17:52 | 52.01252 | -5.04375 | 28197 ft | 394 kts | 281° |
| 2026-04-21 17:52 | 52.01767 | -5.08748 | 28324 ft | 395 kts | 281° |
| 2026-04-21 17:53 | 52.02276 | -5.13074 | 28460 ft | 396 kts | 281° |
| 2026-04-21 17:53 | 52.02826 | -5.17449 | 28596 ft | 396 kts | 283° |
| 2026-04-21 17:53 | 52.03572 | -5.21760 | 28722 ft | 397 kts | 287° |
| 2026-04-21 17:53 | 52.04419 | -5.26033 | 28874 ft | 398 kts | 287° |
| 2026-04-21 17:54 | 52.05241 | -5.30339 | 29001 ft | 399 kts | 286° |
| 2026-04-21 17:54 | 52.06042 | -5.34658 | 29127 ft | 400 kts | 286° |
| 2026-04-21 17:54 | 52.06857 | -5.38981 | 29292 ft | 400 kts | 287° |
| 2026-04-21 17:54 | 52.07701 | -5.43297 | 29420 ft | 401 kts | 287° |
| 2026-04-21 17:55 | 52.08564 | -5.47618 | 29559 ft | 402 kts | 288° |
| 2026-04-21 17:55 | 52.09432 | -5.51942 | 29705 ft | 403 kts | 288° |
| 2026-04-21 17:55 | 52.10301 | -5.56282 | 29851 ft | 404 kts | 287° |
| 2026-04-21 17:55 | 52.11170 | -5.60633 | 29995 ft | 405 kts | 287° |
| 2026-04-21 17:56 | 52.12040 | -5.64993 | 30135 ft | 406 kts | 287° |
| 2026-04-21 17:56 | 52.12910 | -5.69360 | 30277 ft | 406 kts | 287° |
| 2026-04-21 17:56 | 52.13783 | -5.73742 | 30407 ft | 407 kts | 287° |
| 2026-04-21 17:56 | 52.14642 | -5.78067 | 30550 ft | 408 kts | 287° |
| 2026-04-21 17:57 | 52.15482 | -5.82477 | 30663 ft | 408 kts | 285° |
| 2026-04-21 17:57 | 52.16160 | -5.86957 | 30803 ft | 408 kts | 282° |
| 2026-04-21 17:57 | 52.16735 | -5.91482 | 30910 ft | 409 kts | 281° |
| 2026-04-21 17:57 | 52.17305 | -5.95984 | 31035 ft | 410 kts | 282° |
| 2026-04-21 17:58 | 52.17910 | -6.00534 | 31161 ft | 412 kts | 282° |
| 2026-04-21 17:58 | 52.18530 | -6.05103 | 31279 ft | 413 kts | 282° |
| 2026-04-21 17:58 | 52.19145 | -6.09678 | 31407 ft | 414 kts | 282° |
| 2026-04-21 17:58 | 52.19752 | -6.14270 | 31531 ft | 415 kts | 281° |
| 2026-04-21 17:59 | 52.20354 | -6.18864 | 31659 ft | 416 kts | 281° |
| 2026-04-21 17:59 | 52.20947 | -6.23412 | 31783 ft | 416 kts | 281° |
| 2026-04-21 17:59 | 52.21549 | -6.28030 | 31918 ft | 417 kts | 281° |
| 2026-04-21 17:59 | 52.22152 | -6.32673 | 32046 ft | 418 kts | 281° |
| 2026-04-21 18:00 | 52.22754 | -6.37320 | 32176 ft | 419 kts | 281° |
| 2026-04-21 18:00 | 52.23356 | -6.41974 | 32315 ft | 420 kts | 281° |
| 2026-04-21 18:00 | 52.23957 | -6.46643 | 32424 ft | 421 kts | 281° |
| 2026-04-21 18:00 | 52.24557 | -6.51333 | 32564 ft | 424 kts | 281° |
| 2026-04-21 18:01 | 52.25158 | -6.56048 | 32690 ft | 425 kts | 281° |
| 2026-04-21 18:01 | 52.25760 | -6.60783 | 32826 ft | 426 kts | 280° |
| 2026-04-21 18:01 | 52.26760 | -6.68674 | 33050 ft | 428 kts | 280° |
| 2026-04-21 18:02 | 52.27360 | -6.73434 | 33175 ft | 429 kts | 280° |
| 2026-04-21 18:02 | 52.27961 | -6.78216 | 33327 ft | 430 kts | 280° |
| 2026-04-21 18:02 | 52.28559 | -6.82991 | 33455 ft | 431 kts | 280° |
| 2026-04-21 18:02 | 52.29159 | -6.87791 | 33594 ft | 431 kts | 280° |
| 2026-04-21 18:03 | 52.29756 | -6.92592 | 33737 ft | 432 kts | 280° |
| 2026-04-21 18:03 | 52.30356 | -6.97422 | 33859 ft | 434 kts | 279° |
| 2026-04-21 18:03 | 52.30958 | -7.02283 | 34010 ft | 437 kts | 279° |
| 2026-04-21 18:03 | 52.31560 | -7.07184 | 34195 ft | 443 kts | 279° |
| 2026-04-21 18:04 | 52.32778 | -7.17126 | 34254 ft | 446 kts | 279° |
| 2026-04-21 18:04 | 52.33983 | -7.27001 | 34258 ft | 445 kts | 279° |
| 2026-04-21 18:05 | 52.35180 | -7.36927 | 34262 ft | 445 kts | 279° |
| 2026-04-21 18:05 | 52.36369 | -7.46855 | 34253 ft | 445 kts | 279° |
| 2026-04-21 18:06 | 52.37553 | -7.56816 | 34259 ft | 447 kts | 279° |
| 2026-04-21 18:06 | 52.38732 | -7.66807 | 34256 ft | 448 kts | 279° |
| 2026-04-21 18:07 | 52.39905 | -7.76824 | 34249 ft | 448 kts | 279° |
| 2026-04-21 18:07 | 52.41069 | -7.86844 | 34254 ft | 448 kts | 279° |
| 2026-04-21 18:08 | 52.42223 | -7.96864 | 34249 ft | 448 kts | 279° |
| 2026-04-21 18:08 | 52.43373 | -8.06911 | 34250 ft | 450 kts | 278° |
| 2026-04-21 18:09 | 52.44516 | -8.16992 | 34249 ft | 450 kts | 278° |
| 2026-04-21 18:09 | 52.45653 | -8.27092 | 34246 ft | 450 kts | 278° |
| 2026-04-21 18:10 | 52.46781 | -8.37194 | 34243 ft | 450 kts | 278° |
| 2026-04-21 18:10 | 52.47891 | -8.47222 | 34244 ft | 449 kts | 278° |
| 2026-04-21 18:11 | 52.49000 | -8.57309 | 34243 ft | 450 kts | 278° |
| 2026-04-21 18:11 | 52.50101 | -8.67436 | 34237 ft | 451 kts | 278° |
| 2026-04-21 18:12 | 52.51197 | -8.77581 | 34234 ft | 451 kts | 278° |
| 2026-04-21 18:12 | 52.52283 | -8.87725 | 34235 ft | 451 kts | 278° |
| 2026-04-21 18:13 | 52.53361 | -8.97878 | 34238 ft | 451 kts | 277° |
| 2026-04-21 18:13 | 52.54431 | -9.08039 | 34238 ft | 452 kts | 277° |
| 2026-04-21 18:14 | 52.56021 | -9.23308 | 34233 ft | 452 kts | 277° |
| 2026-04-21 18:15 | 52.57069 | -9.33482 | 34232 ft | 452 kts | 277° |
| 2026-04-21 18:15 | 52.58112 | -9.43684 | 34223 ft | 452 kts | 277° |
| 2026-04-21 18:16 | 52.59143 | -9.53877 | 34231 ft | 452 kts | 277° |
| 2026-04-21 18:16 | 52.60166 | -9.64085 | 34233 ft | 454 kts | 276° |
| 2026-04-21 18:17 | 52.61179 | -9.74272 | 34235 ft | 454 kts | 277° |
| 2026-04-21 18:17 | 52.62190 | -9.84515 | 34225 ft | 454 kts | 276° |
| 2026-04-21 18:18 | 52.63191 | -9.94774 | 34220 ft | 453 kts | 276° |
| 2026-04-21 18:18 | 52.64180 | -10.05015 | 34226 ft | 453 kts | 276° |
| 2026-04-21 18:19 | 52.65165 | -10.15293 | 34226 ft | 456 kts | 276° |
| 2026-04-21 18:19 | 52.66144 | -10.25617 | 34222 ft | 457 kts | 276° |
| 2026-04-21 18:20 | 52.67118 | -10.35964 | 34222 ft | 457 kts | 276° |
| 2026-04-21 18:20 | 52.68081 | -10.46300 | 34224 ft | 457 kts | 276° |
| 2026-04-21 18:21 | 52.69035 | -10.56653 | 34224 ft | 457 kts | 276° |
| 2026-04-21 18:21 | 52.69979 | -10.67003 | 34222 ft | 457 kts | 276° |
| 2026-04-21 18:22 | 52.70915 | -10.77365 | 34217 ft | 457 kts | 275° |
| 2026-04-21 18:22 | 52.71841 | -10.87720 | 34219 ft | 457 kts | 275° |
| 2026-04-21 18:23 | 52.72758 | -10.98091 | 34210 ft | 456 kts | 275° |
| 2026-04-21 18:23 | 52.73659 | -11.08381 | 34226 ft | 456 kts | 275° |
| 2026-04-21 18:24 | 52.74559 | -11.18753 | 34220 ft | 457 kts | 275° |
| 2026-04-21 18:24 | 52.75450 | -11.29147 | 34211 ft | 458 kts | 275° |
| 2026-04-21 18:25 | 52.76335 | -11.39553 | 34208 ft | 458 kts | 275° |
| 2026-04-21 18:25 | 52.77210 | -11.49972 | 34207 ft | 458 kts | 275° |
| 2026-04-21 18:26 | 52.78076 | -11.60391 | 34201 ft | 458 kts | 275° |
| 2026-04-21 18:26 | 52.78934 | -11.70828 | 34220 ft | 459 kts | 274° |
| 2026-04-21 18:27 | 52.79784 | -11.81284 | 34209 ft | 460 kts | 274° |
| 2026-04-21 18:27 | 52.80626 | -11.91762 | 34206 ft | 460 kts | 274° |
| 2026-04-21 18:28 | 52.81459 | -12.02235 | 34196 ft | 460 kts | 274° |
| 2026-04-21 18:28 | 52.82282 | -12.12723 | 34199 ft | 460 kts | 274° |
| 2026-04-21 18:29 | 52.83097 | -12.23220 | 34208 ft | 461 kts | 274° |
| 2026-04-21 18:29 | 52.83906 | -12.33740 | 34199 ft | 461 kts | 274° |
| 2026-04-21 18:30 | 52.84703 | -12.44255 | 34207 ft | 461 kts | 274° |
| 2026-04-21 18:30 | 52.85491 | -12.54782 | 34195 ft | 461 kts | 274° |
| 2026-04-21 18:31 | 52.86271 | -12.65311 | 34197 ft | 460 kts | 274° |
| 2026-04-21 18:31 | 52.87038 | -12.75835 | 34201 ft | 461 kts | 274° |
| 2026-04-21 18:32 | 52.87800 | -12.86381 | 34197 ft | 462 kts | 273° |
| 2026-04-21 18:32 | 52.88552 | -12.96932 | 34201 ft | 461 kts | 273° |
| 2026-04-21 18:33 | 52.89289 | -13.07421 | 34190 ft | 462 kts | 273° |
| 2026-04-21 18:33 | 52.90025 | -13.17983 | 34189 ft | 461 kts | 272° |
| 2026-04-21 18:34 | 52.90746 | -13.28542 | 34185 ft | 462 kts | 273° |
| 2026-04-21 18:34 | 52.91464 | -13.39147 | 34186 ft | 464 kts | 272° |
| 2026-04-21 18:35 | 52.92061 | -13.48031 | 34175 ft | 463 kts | 273° |
| 2026-04-21 18:35 | 52.92873 | -13.60372 | 34183 ft | 464 kts | 272° |
| 2026-04-21 18:36 | 52.93565 | -13.70999 | 34172 ft | 463 kts | 272° |
| 2026-04-21 18:36 | 52.94212 | -13.81615 | 34186 ft | 463 kts | 271° |
| 2026-04-21 18:37 | 52.94770 | -13.92252 | 34176 ft | 463 kts | 271° |
| 2026-04-21 18:37 | 52.95323 | -14.02900 | 34179 ft | 463 kts | 271° |
| 2026-04-21 18:38 | 52.95869 | -14.13551 | 34167 ft | 464 kts | 271° |
| 2026-04-21 18:38 | 52.96404 | -14.24194 | 34174 ft | 463 kts | 271° |
| 2026-04-21 18:39 | 52.96927 | -14.34840 | 34176 ft | 463 kts | 271° |
| 2026-04-21 18:39 | 52.97446 | -14.45514 | 34183 ft | 465 kts | 270° |
| 2026-04-21 18:40 | 52.97951 | -14.56204 | 34160 ft | 465 kts | 271° |
| 2026-04-21 18:40 | 52.98369 | -14.65107 | 34171 ft | 466 kts | 270° |
| 2026-04-21 18:41 | 52.98943 | -14.77615 | 34168 ft | 465 kts | 270° |
| 2026-04-21 18:41 | 52.99422 | -14.88318 | 34173 ft | 466 kts | 270° |
| 2026-04-21 18:42 | 52.99880 | -14.99054 | 34178 ft | 466 kts | 269° |
| 2026-04-21 18:42 | 53.00124 | -15.09783 | 34178 ft | 465 kts | 268° |
| 2026-04-21 18:43 | 53.00344 | -15.20524 | 34165 ft | 465 kts | 268° |
| 2026-04-21 18:43 | 53.00566 | -15.31259 | 34162 ft | 466 kts | 268° |
| 2026-04-21 18:44 | 53.00775 | -15.41996 | 34173 ft | 464 kts | 268° |
| 2026-04-21 18:44 | 53.00972 | -15.52676 | 34159 ft | 463 kts | 268° |
| 2026-04-21 18:45 | 53.01160 | -15.63387 | 34153 ft | 463 kts | 267° |
| 2026-04-21 18:45 | 53.01334 | -15.74001 | 34165 ft | 463 kts | 268° |
| 2026-04-21 18:46 | 53.01500 | -15.84692 | 34147 ft | 464 kts | 267° |
| 2026-04-21 18:46 | 53.01660 | -15.95381 | 34158 ft | 462 kts | 268° |
| 2026-04-21 18:47 | 53.01808 | -16.06079 | 34165 ft | 463 kts | 268° |
| 2026-04-21 18:47 | 53.01947 | -16.16769 | 34145 ft | 463 kts | 267° |
| 2026-04-21 18:48 | 53.02076 | -16.27465 | 34144 ft | 464 kts | 267° |
| 2026-04-21 18:48 | 53.02198 | -16.38169 | 34154 ft | 463 kts | 268° |
| 2026-04-21 18:49 | 53.02308 | -16.48879 | 34148 ft | 464 kts | 266° |
| 2026-04-21 18:49 | 53.02377 | -16.56048 | 34150 ft | 465 kts | 266° |
| 2026-04-21 18:50 | 53.02483 | -16.68531 | 34142 ft | 466 kts | 266° |
| 2026-04-21 18:50 | 53.02571 | -16.79284 | 34168 ft | 465 kts | 266° |
| 2026-04-21 18:51 | 53.02643 | -16.90028 | 34141 ft | 466 kts | 267° |
| 2026-04-21 18:51 | 53.02706 | -17.00788 | 34168 ft | 465 kts | 267° |
| 2026-04-21 18:52 | 53.02760 | -17.11483 | 34154 ft | 461 kts | 267° |
| 2026-04-21 18:52 | 53.02807 | -17.22158 | 34141 ft | 462 kts | 266° |
| 2026-04-21 18:53 | 53.02838 | -17.32792 | 34149 ft | 461 kts | 267° |
| 2026-04-21 18:53 | 53.02861 | -17.43448 | 34134 ft | 462 kts | 266° |
| 2026-04-21 18:54 | 53.02881 | -17.54084 | 34156 ft | 460 kts | 266° |
| 2026-04-21 18:54 | 53.02884 | -17.64763 | 34125 ft | 463 kts | 267° |
| 2026-04-21 18:55 | 53.02883 | -17.75450 | 34146 ft | 462 kts | 265° |
| 2026-04-21 18:55 | 53.02867 | -17.86088 | 34141 ft | 464 kts | 266° |
| 2026-04-21 18:56 | 53.02850 | -17.96779 | 34150 ft | 462 kts | 266° |
| 2026-04-21 18:56 | 53.02812 | -18.07474 | 34152 ft | 463 kts | 266° |
| 2026-04-21 18:57 | 53.02773 | -18.18185 | 34136 ft | 464 kts | 265° |
| 2026-04-21 18:57 | 53.02722 | -18.28939 | 34129 ft | 466 kts | 267° |
| 2026-04-21 18:58 | 53.02663 | -18.39688 | 34142 ft | 465 kts | 265° |
| 2026-04-21 18:58 | 53.02597 | -18.50453 | 34143 ft | 466 kts | 265° |
| 2026-04-21 18:59 | 53.02519 | -18.61199 | 34143 ft | 465 kts | 264° |
| 2026-04-21 18:59 | 53.02419 | -18.71949 | 34141 ft | 465 kts | 266° |
| 2026-04-21 19:00 | 53.02327 | -18.82634 | 34127 ft | 460 kts | 266° |
| 2026-04-21 19:00 | 53.02212 | -18.93281 | 34135 ft | 463 kts | 266° |
| 2026-04-21 19:01 | 53.02100 | -19.03939 | 34131 ft | 460 kts | 265° |
| 2026-04-21 19:01 | 53.01969 | -19.14589 | 34148 ft | 463 kts | 265° |
| 2026-04-21 19:02 | 53.01834 | -19.25273 | 34137 ft | 462 kts | 265° |
| 2026-04-21 19:02 | 53.01682 | -19.35961 | 34135 ft | 463 kts | 266° |
| 2026-04-21 19:03 | 53.01523 | -19.46635 | 34124 ft | 462 kts | 265° |
| 2026-04-21 19:03 | 53.01356 | -19.57316 | 34125 ft | 464 kts | 266° |
| 2026-04-21 19:04 | 53.01181 | -19.68013 | 34133 ft | 463 kts | 265° |
| 2026-04-21 19:04 | 53.00993 | -19.78671 | 34133 ft | 466 kts | 266° |
| 2026-04-21 19:05 | 53.00804 | -19.89413 | 34136 ft | 465 kts | 265° |
| 2026-04-21 19:05 | 53.00663 | -20.00163 | 34118 ft | 468 kts | 270° |
| 2026-04-21 19:06 | 53.00905 | -20.10923 | 34134 ft | 465 kts | 267° |
| 2026-04-21 19:06 | 53.00998 | -20.21693 | 34130 ft | 468 kts | 270° |
| 2026-04-21 19:07 | 53.01327 | -20.32483 | 34131 ft | 467 kts | 272° |
| 2026-04-21 19:07 | 53.01747 | -20.43238 | 34133 ft | 468 kts | 272° |
| 2026-04-21 19:08 | 53.02159 | -20.54014 | 34126 ft | 466 kts | 271° |
| 2026-04-21 19:08 | 53.02563 | -20.64750 | 34124 ft | 466 kts | 272° |
| 2026-04-21 19:09 | 53.02966 | -20.75518 | 34147 ft | 467 kts | 271° |
| 2026-04-21 19:09 | 53.03358 | -20.86275 | 34141 ft | 467 kts | 272° |
| 2026-04-21 19:10 | 53.03743 | -20.97070 | 34117 ft | 469 kts | 272° |
| 2026-04-21 19:10 | 53.04120 | -21.07867 | 34137 ft | 467 kts | 271° |
| 2026-04-21 19:11 | 53.04484 | -21.18677 | 34138 ft | 469 kts | 271° |
| 2026-04-21 19:11 | 53.04845 | -21.29485 | 34148 ft | 468 kts | 272° |
| 2026-04-21 19:12 | 53.05187 | -21.40298 | 34149 ft | 469 kts | 272° |
| 2026-04-21 19:12 | 53.05524 | -21.51130 | 34147 ft | 469 kts | 271° |
| 2026-04-21 19:13 | 53.05852 | -21.61987 | 34129 ft | 472 kts | 271° |
| 2026-04-21 19:13 | 53.06173 | -21.72880 | 34154 ft | 472 kts | 271° |
| 2026-04-21 19:14 | 53.06483 | -21.83773 | 34156 ft | 472 kts | 272° |
| 2026-04-21 19:14 | 53.06782 | -21.94690 | 34152 ft | 474 kts | 271° |
| 2026-04-21 19:15 | 53.07075 | -22.05656 | 34147 ft | 475 kts | 271° |
| 2026-04-21 19:15 | 53.07357 | -22.16640 | 34157 ft | 476 kts | 272° |
| 2026-04-21 19:16 | 53.07629 | -22.27622 | 34162 ft | 475 kts | 271° |
| 2026-04-21 19:16 | 53.07890 | -22.38603 | 34154 ft | 475 kts | 271° |
| 2026-04-21 19:17 | 53.08264 | -22.55100 | 34155 ft | 477 kts | 271° |
| 2026-04-21 19:17 | 53.08500 | -22.66076 | 34159 ft | 478 kts | 271° |
| 2026-04-21 19:18 | 53.08729 | -22.77208 | 34149 ft | 484 kts | 271° |
| 2026-04-21 19:18 | 53.08953 | -22.88412 | 34165 ft | 485 kts | 271° |
| 2026-04-21 19:19 | 53.09166 | -22.99651 | 34154 ft | 486 kts | 271° |
| 2026-04-21 19:19 | 53.09366 | -23.10902 | 34160 ft | 488 kts | 271° |
| 2026-04-21 19:20 | 53.09559 | -23.22228 | 34157 ft | 490 kts | 271° |
| 2026-04-21 19:20 | 53.09740 | -23.33543 | 34176 ft | 489 kts | 271° |
| 2026-04-21 19:21 | 53.09909 | -23.44867 | 34167 ft | 490 kts | 271° |
| 2026-04-21 19:21 | 53.10066 | -23.56117 | 34182 ft | 489 kts | 271° |
| 2026-04-21 19:22 | 53.10214 | -23.67489 | 34158 ft | 494 kts | 271° |
| 2026-04-21 19:22 | 53.10356 | -23.78897 | 34178 ft | 493 kts | 271° |
| 2026-04-21 19:23 | 53.10482 | -23.90337 | 34165 ft | 498 kts | 272° |
| 2026-04-21 19:23 | 53.10605 | -24.01923 | 34204 ft | 503 kts | 272° |
| 2026-04-21 19:24 | 53.10720 | -24.13626 | 34175 ft | 506 kts | 272° |
| 2026-04-21 19:24 | 53.10820 | -24.25299 | 34183 ft | 505 kts | 272° |
| 2026-04-21 19:25 | 53.10907 | -24.37032 | 34175 ft | 506 kts | 272° |
| 2026-04-21 19:25 | 53.10980 | -24.48729 | 34180 ft | 507 kts | 272° |
| 2026-04-21 19:26 | 53.11044 | -24.60461 | 34189 ft | 506 kts | 271° |
| 2026-04-21 19:26 | 53.11090 | -24.72151 | 34202 ft | 506 kts | 272° |
| 2026-04-21 19:27 | 53.11131 | -24.83883 | 34197 ft | 505 kts | 272° |
| 2026-04-21 19:27 | 53.11160 | -24.95592 | 34198 ft | 507 kts | 271° |
| 2026-04-21 19:28 | 53.11176 | -25.07319 | 34181 ft | 506 kts | 271° |
| 2026-04-21 19:28 | 53.11179 | -25.19076 | 34203 ft | 510 kts | 272° |
| 2026-04-21 19:29 | 53.11175 | -25.30890 | 34208 ft | 510 kts | 271° |
| 2026-04-21 19:29 | 53.11158 | -25.42718 | 34203 ft | 512 kts | 271° |
| 2026-04-21 19:30 | 53.11129 | -25.54541 | 34218 ft | 511 kts | 271° |
| 2026-04-21 19:30 | 53.11088 | -25.66312 | 34212 ft | 512 kts | 271° |
| 2026-04-21 19:31 | 53.11034 | -25.78162 | 34207 ft | 512 kts | 271° |
| 2026-04-21 19:31 | 53.10968 | -25.90094 | 34208 ft | 512 kts | 271° |
| 2026-04-21 19:32 | 53.10893 | -26.01882 | 34224 ft | 513 kts | 271° |
| 2026-04-21 19:32 | 53.10804 | -26.13756 | 34222 ft | 513 kts | 271° |
| 2026-04-21 19:33 | 53.10703 | -26.25638 | 34211 ft | 514 kts | 271° |
| 2026-04-21 19:33 | 53.10591 | -26.37503 | 34219 ft | 513 kts | 271° |
| 2026-04-21 19:34 | 53.10465 | -26.49388 | 34229 ft | 514 kts | 271° |
| 2026-04-21 19:34 | 53.10330 | -26.61299 | 34230 ft | 514 kts | 271° |
| 2026-04-21 19:35 | 53.10103 | -26.79140 | 34230 ft | 514 kts | 271° |
| 2026-04-21 19:36 | 53.09966 | -26.89022 | 34238 ft | 514 kts | 271° |
| 2026-04-21 19:36 | 53.09759 | -27.02850 | 34234 ft | 514 kts | 270° |
| 2026-04-21 19:37 | 53.09569 | -27.14742 | 34232 ft | 514 kts | 270° |
| 2026-04-21 19:37 | 53.09367 | -27.26647 | 34226 ft | 514 kts | 270° |
| 2026-04-21 19:38 | 53.09188 | -27.36620 | 34231 ft | 514 kts | 270° |
| 2026-04-21 19:38 | 53.08963 | -27.48531 | 34250 ft | 518 kts | 271° |
| 2026-04-21 19:39 | 53.08733 | -27.60511 | 34241 ft | 523 kts | 271° |
| 2026-04-21 19:39 | 53.08491 | -27.72620 | 34239 ft | 524 kts | 271° |
| 2026-04-21 19:40 | 53.08231 | -27.84722 | 34234 ft | 524 kts | 271° |
| 2026-04-21 19:40 | 53.07955 | -27.96833 | 34249 ft | 524 kts | 271° |
| 2026-04-21 19:41 | 53.07666 | -28.08940 | 34239 ft | 524 kts | 271° |
| 2026-04-21 19:41 | 53.07365 | -28.21044 | 34245 ft | 524 kts | 271° |
| 2026-04-21 19:42 | 53.07053 | -28.33148 | 34252 ft | 524 kts | 271° |
| 2026-04-21 19:42 | 53.06727 | -28.45246 | 34256 ft | 524 kts | 271° |
| 2026-04-21 19:43 | 53.06389 | -28.57341 | 34255 ft | 524 kts | 271° |
| 2026-04-21 19:43 | 53.06034 | -28.69443 | 34239 ft | 524 kts | 271° |
| 2026-04-21 19:44 | 53.05675 | -28.81534 | 34253 ft | 524 kts | 271° |
| 2026-04-21 19:44 | 53.05302 | -28.93629 | 34267 ft | 524 kts | 271° |
| 2026-04-21 19:45 | 53.04917 | -29.05635 | 34264 ft | 524 kts | 271° |
| 2026-04-21 19:45 | 53.04518 | -29.17725 | 34245 ft | 524 kts | 271° |
| 2026-04-21 19:46 | 53.04106 | -29.29807 | 34265 ft | 522 kts | 271° |
| 2026-04-21 19:46 | 53.03682 | -29.41852 | 34272 ft | 522 kts | 271° |
| 2026-04-21 19:47 | 53.03247 | -29.53890 | 34268 ft | 522 kts | 271° |
| 2026-04-21 19:47 | 53.02800 | -29.65938 | 34291 ft | 522 kts | 271° |
| 2026-04-21 19:48 | 53.02340 | -29.77972 | 34273 ft | 522 kts | 271° |
| 2026-04-21 19:48 | 53.01873 | -29.89907 | 34271 ft | 522 kts | 271° |
| 2026-04-21 19:49 | 53.01512 | -30.01946 | 34272 ft | 519 kts | 276° |
| 2026-04-21 19:49 | 53.01423 | -30.13969 | 34286 ft | 522 kts | 272° |
| 2026-04-21 19:50 | 53.01276 | -30.25991 | 34290 ft | 519 kts | 277° |
| 2026-04-21 19:50 | 53.01607 | -30.37916 | 34281 ft | 515 kts | 279° |
| 2026-04-21 19:51 | 53.02031 | -30.49763 | 34290 ft | 513 kts | 279° |
| 2026-04-21 19:51 | 53.02459 | -30.61590 | 34293 ft | 513 kts | 279° |
| 2026-04-21 19:52 | 53.02898 | -30.73407 | 34293 ft | 513 kts | 279° |
| 2026-04-21 19:52 | 53.03331 | -30.85229 | 34279 ft | 514 kts | 279° |
| 2026-04-21 19:53 | 53.03757 | -30.97094 | 34290 ft | 514 kts | 279° |
| 2026-04-21 19:53 | 53.04166 | -31.08933 | 34301 ft | 512 kts | 278° |
| 2026-04-21 19:54 | 53.04564 | -31.20736 | 34304 ft | 512 kts | 278° |
| 2026-04-21 19:54 | 53.04953 | -31.32557 | 34316 ft | 512 kts | 278° |
| 2026-04-21 19:55 | 53.05330 | -31.44383 | 34319 ft | 512 kts | 278° |
| 2026-04-21 19:55 | 53.05510 | -31.50246 | 34804 ft | 503 kts | 278° |
| 2026-04-21 19:55 | 53.05674 | -31.55933 | 36147 ft | 481 kts | 278° |
| 2026-04-21 19:55 | 53.05832 | -31.61477 | 36866 ft | 485 kts | 278° |
| 2026-04-21 19:56 | 53.06007 | -31.67164 | 36738 ft | 498 kts | 277° |
| 2026-04-21 19:56 | 53.06185 | -31.72928 | 36555 ft | 500 kts | 277° |
| 2026-04-21 19:56 | 53.06353 | -31.78703 | 36407 ft | 502 kts | 277° |
| 2026-04-21 19:57 | 53.06674 | -31.90305 | 36335 ft | 503 kts | 277° |
| 2026-04-21 19:57 | 53.06988 | -32.01936 | 36331 ft | 504 kts | 277° |
| 2026-04-21 19:58 | 53.07291 | -32.13584 | 36331 ft | 504 kts | 277° |
| 2026-04-21 19:58 | 53.07581 | -32.25190 | 36322 ft | 503 kts | 277° |
| 2026-04-21 19:59 | 53.07858 | -32.36729 | 36332 ft | 500 kts | 277° |
| 2026-04-21 19:59 | 53.08126 | -32.48327 | 36343 ft | 503 kts | 277° |
| 2026-04-21 20:00 | 53.08383 | -32.59940 | 36331 ft | 502 kts | 276° |
| 2026-04-21 20:00 | 53.08628 | -32.71563 | 36328 ft | 503 kts | 276° |
| 2026-04-21 20:01 | 53.08864 | -32.83085 | 36415 ft | 500 kts | 274° |
| 2026-04-21 20:01 | 53.09089 | -32.94774 | 36373 ft | 504 kts | 276° |
| 2026-04-21 20:02 | 53.09294 | -33.06385 | 36344 ft | 502 kts | 276° |
| 2026-04-21 20:02 | 53.09494 | -33.18012 | 36346 ft | 503 kts | 276° |
| 2026-04-21 20:03 | 53.09683 | -33.29633 | 36349 ft | 503 kts | 276° |
| 2026-04-21 20:03 | 53.09861 | -33.41273 | 36339 ft | 503 kts | 276° |
| 2026-04-21 20:04 | 53.10027 | -33.52885 | 36351 ft | 502 kts | 275° |
| 2026-04-21 20:04 | 53.10180 | -33.64499 | 36353 ft | 502 kts | 275° |
| 2026-04-21 20:05 | 53.10322 | -33.76032 | 36354 ft | 502 kts | 275° |
| 2026-04-21 20:05 | 53.10454 | -33.87639 | 36361 ft | 502 kts | 275° |
| 2026-04-21 20:06 | 53.10575 | -33.99250 | 36354 ft | 502 kts | 275° |
| 2026-04-21 20:06 | 53.10684 | -34.10859 | 36348 ft | 501 kts | 275° |
| 2026-04-21 20:07 | 53.10781 | -34.22445 | 36361 ft | 500 kts | 275° |
| 2026-04-21 20:07 | 53.10867 | -34.34021 | 36344 ft | 500 kts | 274° |
| 2026-04-21 20:08 | 53.10942 | -34.45585 | 36360 ft | 500 kts | 274° |
| 2026-04-21 20:08 | 53.11005 | -34.57145 | 36370 ft | 499 kts | 274° |
| 2026-04-21 20:09 | 53.11058 | -34.68702 | 36365 ft | 499 kts | 274° |
| 2026-04-21 20:09 | 53.11098 | -34.80228 | 36363 ft | 498 kts | 274° |
| 2026-04-21 20:10 | 53.11127 | -34.91749 | 36373 ft | 498 kts | 274° |
| 2026-04-21 20:10 | 53.11146 | -35.03256 | 36377 ft | 497 kts | 274° |
| 2026-04-21 20:11 | 53.11154 | -35.14782 | 36370 ft | 498 kts | 274° |
| 2026-04-21 20:11 | 53.11151 | -35.26287 | 36369 ft | 497 kts | 273° |
| 2026-04-21 20:12 | 53.11135 | -35.37754 | 36376 ft | 494 kts | 273° |
| 2026-04-21 20:12 | 53.11112 | -35.47240 | 36367 ft | 493 kts | 273° |
| 2026-04-21 20:13 | 53.11068 | -35.60484 | 36375 ft | 492 kts | 272° |
| 2026-04-21 20:13 | 53.11021 | -35.71885 | 36380 ft | 492 kts | 272° |
| 2026-04-21 20:14 | 53.10963 | -35.83289 | 36375 ft | 493 kts | 272° |
| 2026-04-21 20:14 | 53.10894 | -35.94682 | 36379 ft | 492 kts | 272° |
| 2026-04-21 20:15 | 53.10813 | -36.06043 | 36380 ft | 490 kts | 272° |
| 2026-04-21 20:15 | 53.10721 | -36.17364 | 36371 ft | 489 kts | 272° |
| 2026-04-21 20:16 | 53.10619 | -36.28683 | 36381 ft | 489 kts | 272° |
| 2026-04-21 20:16 | 53.10508 | -36.40002 | 36378 ft | 489 kts | 272° |
| 2026-04-21 20:17 | 53.10386 | -36.51325 | 36368 ft | 490 kts | 272° |
| 2026-04-21 20:17 | 53.10253 | -36.62637 | 36380 ft | 488 kts | 272° |
| 2026-04-21 20:18 | 53.10134 | -36.72021 | 36376 ft | 488 kts | 272° |
| 2026-04-21 20:18 | 53.09954 | -36.85213 | 36376 ft | 488 kts | 272° |
| 2026-04-21 20:19 | 53.09790 | -36.96488 | 36360 ft | 487 kts | 271° |
| 2026-04-21 20:19 | 53.09615 | -37.07678 | 36376 ft | 487 kts | 271° |
| 2026-04-21 20:20 | 53.09428 | -37.18924 | 36374 ft | 486 kts | 271° |
| 2026-04-21 20:20 | 53.09232 | -37.30130 | 36377 ft | 484 kts | 271° |
| 2026-04-21 20:21 | 53.09025 | -37.41330 | 36374 ft | 484 kts | 271° |
| 2026-04-21 20:21 | 53.08808 | -37.52526 | 36382 ft | 484 kts | 271° |
| 2026-04-21 20:22 | 53.08582 | -37.63723 | 36373 ft | 484 kts | 271° |
| 2026-04-21 20:22 | 53.08222 | -37.80516 | 36378 ft | 484 kts | 271° |
| 2026-04-21 20:23 | 53.07969 | -37.91673 | 36367 ft | 482 kts | 271° |
| 2026-04-21 20:23 | 53.07706 | -38.02813 | 36378 ft | 482 kts | 271° |
| 2026-04-21 20:24 | 53.07432 | -38.13956 | 36372 ft | 482 kts | 271° |
| 2026-04-21 20:24 | 53.07149 | -38.25081 | 36371 ft | 482 kts | 271° |
| 2026-04-21 20:25 | 53.06856 | -38.36219 | 36374 ft | 482 kts | 271° |
| 2026-04-21 20:25 | 53.06604 | -38.45469 | 36370 ft | 481 kts | 271° |
| 2026-04-21 20:26 | 53.06292 | -38.56573 | 36376 ft | 481 kts | 271° |
| 2026-04-21 20:26 | 53.05970 | -38.67683 | 36373 ft | 481 kts | 271° |
| 2026-04-21 20:27 | 53.05582 | -38.80565 | 36373 ft | 479 kts | 271° |
| 2026-04-21 20:27 | 53.05237 | -38.91610 | 36375 ft | 478 kts | 270° |
| 2026-04-21 20:28 | 53.04940 | -39.00847 | 36371 ft | 478 kts | 270° |
| 2026-04-21 20:28 | 53.04578 | -39.11866 | 36372 ft | 478 kts | 270° |
| 2026-04-21 20:29 | 53.04207 | -39.22893 | 36372 ft | 478 kts | 270° |
| 2026-04-21 20:29 | 53.03829 | -39.33851 | 36371 ft | 478 kts | 270° |
| 2026-04-21 20:30 | 53.03438 | -39.44873 | 36369 ft | 478 kts | 270° |
| 2026-04-21 20:30 | 53.03036 | -39.55898 | 36373 ft | 478 kts | 270° |
| 2026-04-21 20:31 | 53.02622 | -39.66913 | 36357 ft | 476 kts | 272° |
| 2026-04-21 20:31 | 53.02201 | -39.77841 | 36370 ft | 473 kts | 272° |
| 2026-04-21 20:32 | 53.01771 | -39.88722 | 36370 ft | 472 kts | 272° |
| 2026-04-21 20:32 | 53.01073 | -39.99609 | 36359 ft | 478 kts | 263° |
| 2026-04-21 20:33 | 52.99148 | -40.10257 | 36372 ft | 486 kts | 255° |
| 2026-04-21 20:33 | 52.96982 | -40.20853 | 36347 ft | 483 kts | 260° |
| 2026-04-21 20:34 | 52.95255 | -40.31564 | 36361 ft | 480 kts | 262° |
| 2026-04-21 20:34 | 52.93594 | -40.42280 | 36368 ft | 479 kts | 262° |
| 2026-04-21 20:35 | 52.91930 | -40.52979 | 36370 ft | 479 kts | 262° |
| 2026-04-21 20:35 | 52.90274 | -40.63675 | 36367 ft | 479 kts | 262° |
| 2026-04-21 20:36 | 52.88614 | -40.74359 | 36318 ft | 479 kts | 261° |
| 2026-04-21 20:36 | 52.86955 | -40.84957 | 36359 ft | 477 kts | 261° |
| 2026-04-21 20:37 | 52.85272 | -40.95650 | 36352 ft | 477 kts | 261° |
| 2026-04-21 20:37 | 52.83593 | -41.06259 | 36351 ft | 477 kts | 261° |
| 2026-04-21 20:38 | 52.81915 | -41.16794 | 36354 ft | 477 kts | 261° |
| 2026-04-21 20:38 | 52.80217 | -41.27391 | 36347 ft | 477 kts | 260° |
| 2026-04-21 20:39 | 52.78507 | -41.37985 | 36345 ft | 478 kts | 260° |
| 2026-04-21 20:39 | 52.76786 | -41.48578 | 36347 ft | 478 kts | 260° |
| 2026-04-21 20:40 | 52.75056 | -41.59163 | 36343 ft | 478 kts | 260° |
| 2026-04-21 20:40 | 52.73316 | -41.69750 | 36340 ft | 478 kts | 260° |
| 2026-04-21 20:41 | 52.71567 | -41.80321 | 36333 ft | 478 kts | 259° |
| 2026-04-21 20:41 | 52.69811 | -41.90869 | 36342 ft | 477 kts | 259° |
| 2026-04-21 20:42 | 52.68045 | -42.01411 | 36328 ft | 477 kts | 259° |
| 2026-04-21 20:42 | 52.66272 | -42.11919 | 36336 ft | 475 kts | 259° |
| 2026-04-21 20:43 | 52.64494 | -42.22404 | 36327 ft | 475 kts | 259° |
| 2026-04-21 20:43 | 52.62706 | -42.32886 | 36322 ft | 475 kts | 259° |
| 2026-04-21 20:44 | 52.60912 | -42.43342 | 36327 ft | 475 kts | 259° |
| 2026-04-21 20:44 | 52.59110 | -42.53780 | 36330 ft | 475 kts | 259° |
| 2026-04-21 20:45 | 52.57299 | -42.64216 | 36318 ft | 475 kts | 259° |
| 2026-04-21 20:45 | 52.55475 | -42.74655 | 36326 ft | 475 kts | 259° |
| 2026-04-21 20:46 | 52.53647 | -42.85073 | 36313 ft | 475 kts | 258° |
| 2026-04-21 20:46 | 52.51806 | -42.95483 | 36312 ft | 475 kts | 258° |
| 2026-04-21 20:47 | 52.49970 | -43.05807 | 36312 ft | 475 kts | 258° |
| 2026-04-21 20:47 | 52.48112 | -43.16204 | 36314 ft | 475 kts | 258° |
| 2026-04-21 20:48 | 52.46244 | -43.26597 | 36302 ft | 474 kts | 257° |
| 2026-04-21 20:48 | 52.44373 | -43.36933 | 36302 ft | 472 kts | 257° |
| 2026-04-21 20:49 | 52.42499 | -43.47228 | 36301 ft | 472 kts | 257° |
| 2026-04-21 20:49 | 52.40614 | -43.57533 | 36289 ft | 472 kts | 257° |
| 2026-04-21 20:50 | 52.38722 | -43.67822 | 36291 ft | 472 kts | 257° |
| 2026-04-21 20:50 | 52.36822 | -43.78096 | 36279 ft | 472 kts | 256° |
| 2026-04-21 20:51 | 52.34915 | -43.88358 | 36280 ft | 471 kts | 256° |
| 2026-04-21 20:51 | 52.32998 | -43.98600 | 36285 ft | 471 kts | 256° |
| 2026-04-21 20:52 | 52.31074 | -44.08831 | 36281 ft | 471 kts | 256° |
| 2026-04-21 20:52 | 52.29155 | -44.18984 | 36273 ft | 471 kts | 256° |
| 2026-04-21 20:53 | 52.27213 | -44.29202 | 36273 ft | 471 kts | 256° |
| 2026-04-21 20:53 | 52.25263 | -44.39407 | 36267 ft | 471 kts | 255° |
| 2026-04-21 20:54 | 52.23308 | -44.49587 | 36267 ft | 470 kts | 255° |
| 2026-04-21 20:54 | 52.21345 | -44.59742 | 36261 ft | 469 kts | 255° |
| 2026-04-21 20:55 | 52.19374 | -44.69889 | 36258 ft | 469 kts | 255° |
| 2026-04-21 20:55 | 52.17397 | -44.80019 | 36258 ft | 469 kts | 255° |
| 2026-04-21 20:56 | 52.15418 | -44.90100 | 36244 ft | 466 kts | 255° |
| 2026-04-21 20:56 | 52.13437 | -45.00127 | 36254 ft | 465 kts | 254° |
| 2026-04-21 20:57 | 52.11450 | -45.10141 | 36244 ft | 465 kts | 254° |
| 2026-04-21 20:57 | 52.09453 | -45.20160 | 36227 ft | 465 kts | 254° |
| 2026-04-21 20:58 | 52.07451 | -45.30156 | 36242 ft | 465 kts | 253° |
| 2026-04-21 20:58 | 52.05446 | -45.40104 | 36237 ft | 462 kts | 253° |
| 2026-04-21 20:59 | 52.03437 | -45.50017 | 36235 ft | 462 kts | 253° |
| 2026-04-21 20:59 | 52.01436 | -45.59854 | 36219 ft | 461 kts | 253° |
| 2026-04-21 21:00 | 51.99421 | -45.69708 | 36224 ft | 459 kts | 252° |
| 2026-04-21 21:00 | 51.97402 | -45.79525 | 36219 ft | 458 kts | 252° |
| 2026-04-21 21:01 | 51.95383 | -45.89286 | 36213 ft | 455 kts | 252° |
| 2026-04-21 21:01 | 51.93362 | -45.99000 | 36211 ft | 455 kts | 252° |
| 2026-04-21 21:02 | 51.91335 | -46.08709 | 36203 ft | 455 kts | 252° |
| 2026-04-21 21:02 | 51.89300 | -46.18418 | 36192 ft | 455 kts | 252° |
| 2026-04-21 21:03 | 51.87262 | -46.28103 | 36191 ft | 455 kts | 251° |
| 2026-04-21 21:03 | 51.85219 | -46.37751 | 36188 ft | 452 kts | 251° |
| 2026-04-21 21:04 | 51.83173 | -46.47361 | 36185 ft | 452 kts | 251° |
| 2026-04-21 21:04 | 51.81121 | -46.56962 | 36181 ft | 452 kts | 251° |
| 2026-04-21 21:05 | 51.79062 | -46.66557 | 36178 ft | 452 kts | 251° |
| 2026-04-21 21:05 | 51.76995 | -46.76147 | 36181 ft | 452 kts | 251° |
| 2026-04-21 21:06 | 51.74922 | -46.85711 | 36179 ft | 451 kts | 251° |
| 2026-04-21 21:06 | 51.72858 | -46.95186 | 36165 ft | 451 kts | 251° |
| 2026-04-21 21:07 | 51.70772 | -47.04726 | 36165 ft | 451 kts | 251° |
| 2026-04-21 21:07 | 51.68679 | -47.14254 | 36156 ft | 451 kts | 250° |
| 2026-04-21 21:08 | 51.66579 | -47.23774 | 36155 ft | 451 kts | 250° |
| 2026-04-21 21:08 | 51.64475 | -47.33267 | 36153 ft | 449 kts | 250° |
| 2026-04-21 21:09 | 51.62363 | -47.42736 | 36152 ft | 449 kts | 250° |
| 2026-04-21 21:09 | 51.60246 | -47.52191 | 36142 ft | 449 kts | 250° |
| 2026-04-21 21:10 | 51.58122 | -47.61640 | 36144 ft | 449 kts | 250° |
| 2026-04-21 21:10 | 51.55992 | -47.71078 | 36130 ft | 449 kts | 249° |
| 2026-04-21 21:11 | 51.53857 | -47.80489 | 36151 ft | 448 kts | 249° |
| 2026-04-21 21:11 | 51.51719 | -47.89871 | 36130 ft | 447 kts | 249° |
| 2026-04-21 21:12 | 51.49575 | -47.99226 | 36129 ft | 446 kts | 249° |
| 2026-04-21 21:12 | 51.47427 | -48.08564 | 36125 ft | 446 kts | 249° |
| 2026-04-21 21:13 | 51.45275 | -48.17887 | 36132 ft | 446 kts | 248° |
| 2026-04-21 21:13 | 51.43484 | -48.25615 | 36117 ft | 444 kts | 248° |
| 2026-04-21 21:14 | 51.41324 | -48.34886 | 36115 ft | 444 kts | 248° |
| 2026-04-21 21:14 | 51.39157 | -48.44149 | 36108 ft | 444 kts | 248° |
| 2026-04-21 21:15 | 51.36960 | -48.53389 | 36107 ft | 444 kts | 247° |
| 2026-04-21 21:15 | 51.34697 | -48.62578 | 36112 ft | 444 kts | 247° |
| 2026-04-21 21:16 | 51.32461 | -48.71651 | 36103 ft | 442 kts | 247° |
| 2026-04-21 21:16 | 51.30185 | -48.80849 | 36103 ft | 441 kts | 247° |
| 2026-04-21 21:17 | 51.27925 | -48.89950 | 36101 ft | 441 kts | 247° |
| 2026-04-21 21:17 | 51.25655 | -48.99054 | 36107 ft | 441 kts | 246° |
| 2026-04-21 21:18 | 51.23380 | -49.08145 | 36100 ft | 440 kts | 246° |
| 2026-04-21 21:18 | 51.21102 | -49.17216 | 36094 ft | 440 kts | 246° |
| 2026-04-21 21:19 | 51.18818 | -49.26272 | 36094 ft | 440 kts | 246° |
| 2026-04-21 21:19 | 51.16529 | -49.35319 | 36095 ft | 440 kts | 246° |
| 2026-04-21 21:20 | 51.14248 | -49.44302 | 36094 ft | 440 kts | 246° |
| 2026-04-21 21:20 | 51.11946 | -49.53336 | 36103 ft | 440 kts | 246° |
| 2026-04-21 21:21 | 51.09640 | -49.62356 | 36095 ft | 440 kts | 246° |
| 2026-04-21 21:21 | 51.07330 | -49.71361 | 36095 ft | 440 kts | 246° |
| 2026-04-21 21:22 | 51.05017 | -49.80349 | 36096 ft | 439 kts | 246° |
| 2026-04-21 21:22 | 51.02699 | -49.89333 | 36095 ft | 439 kts | 245° |
| 2026-04-21 21:23 | 51.00384 | -49.98316 | 36110 ft | 439 kts | 246° |
| 2026-04-21 21:23 | 50.98191 | -50.07344 | 36102 ft | 436 kts | 247° |
| 2026-04-21 21:24 | 50.96050 | -50.16318 | 36103 ft | 434 kts | 246° |
| 2026-04-21 21:24 | 50.93898 | -50.25239 | 36103 ft | 433 kts | 246° |
| 2026-04-21 21:25 | 50.91746 | -50.34161 | 36104 ft | 433 kts | 246° |
| 2026-04-21 21:25 | 50.89589 | -50.43078 | 36104 ft | 433 kts | 246° |
| 2026-04-21 21:26 | 50.87430 | -50.51971 | 36106 ft | 432 kts | 246° |
| 2026-04-21 21:26 | 50.85266 | -50.60847 | 36105 ft | 432 kts | 246° |
| 2026-04-21 21:27 | 50.83113 | -50.69643 | 36105 ft | 432 kts | 246° |
| 2026-04-21 21:27 | 50.80941 | -50.78482 | 36108 ft | 431 kts | 246° |
| 2026-04-21 21:28 | 50.78761 | -50.87315 | 36105 ft | 431 kts | 246° |
| 2026-04-21 21:29 | 50.75479 | -51.00554 | 36117 ft | 431 kts | 245° |
| 2026-04-21 21:29 | 50.73284 | -51.09361 | 36114 ft | 431 kts | 245° |
| 2026-04-21 21:30 | 50.71084 | -51.18163 | 36120 ft | 431 kts | 245° |
| 2026-04-21 21:30 | 50.68876 | -51.26949 | 36113 ft | 431 kts | 245° |
| 2026-04-21 21:31 | 50.66660 | -51.35734 | 36134 ft | 431 kts | 244° |
| 2026-04-21 21:31 | 50.64436 | -51.44524 | 36119 ft | 432 kts | 244° |
| 2026-04-21 21:32 | 50.62201 | -51.53314 | 36119 ft | 432 kts | 244° |
| 2026-04-21 21:32 | 50.59960 | -51.62097 | 36123 ft | 432 kts | 244° |
| 2026-04-21 21:33 | 50.57727 | -51.70818 | 36125 ft | 432 kts | 244° |
| 2026-04-21 21:33 | 50.55474 | -51.79583 | 36132 ft | 432 kts | 244° |
| 2026-04-21 21:34 | 50.53217 | -51.88327 | 36136 ft | 431 kts | 244° |
| 2026-04-21 21:34 | 50.50957 | -51.97029 | 36135 ft | 430 kts | 242° |
| 2026-04-21 21:34 | 50.49496 | -52.01088 | 36100 ft | 423 kts | 229° |
| 2026-04-21 21:35 | 50.47524 | -52.04465 | 36163 ft | 420 kts | 222° |
| 2026-04-21 21:35 | 50.43315 | -52.10873 | 36145 ft | 423 kts | 225° |
| 2026-04-21 21:36 | 50.39324 | -52.17649 | 36169 ft | 423 kts | 225° |
| 2026-04-21 21:36 | 50.35318 | -52.24352 | 36142 ft | 420 kts | 225° |
| 2026-04-21 21:37 | 50.31301 | -52.30971 | 36149 ft | 419 kts | 225° |
| 2026-04-21 21:37 | 50.27280 | -52.37602 | 36151 ft | 419 kts | 225° |
| 2026-04-21 21:38 | 50.23269 | -52.44198 | 36157 ft | 419 kts | 225° |
| 2026-04-21 21:38 | 50.19260 | -52.50773 | 36154 ft | 417 kts | 224° |
| 2026-04-21 21:39 | 50.15256 | -52.57321 | 36154 ft | 416 kts | 224° |
| 2026-04-21 21:39 | 50.11250 | -52.63853 | 36162 ft | 416 kts | 224° |
| 2026-04-21 21:40 | 50.07243 | -52.70372 | 36157 ft | 416 kts | 224° |
| 2026-04-21 21:40 | 50.03263 | -52.76830 | 36181 ft | 416 kts | 224° |
| 2026-04-21 21:41 | 49.99262 | -52.83307 | 36161 ft | 415 kts | 224° |
| 2026-04-21 21:41 | 49.95271 | -52.89750 | 36162 ft | 414 kts | 224° |
| 2026-04-21 21:42 | 49.91270 | -52.96192 | 36162 ft | 414 kts | 224° |
| 2026-04-21 21:42 | 49.87263 | -53.02626 | 36165 ft | 414 kts | 224° |
| 2026-04-21 21:43 | 49.83251 | -53.09055 | 36174 ft | 414 kts | 224° |
| 2026-04-21 21:43 | 49.79257 | -53.15436 | 35998 ft | 417 kts | 224° |
| 2026-04-21 21:43 | 49.77216 | -53.18692 | 35269 ft | 416 kts | 224° |
| 2026-04-21 21:44 | 49.75220 | -53.21875 | 34517 ft | 407 kts | 223° |
| 2026-04-21 21:44 | 49.73267 | -53.24988 | 33746 ft | 399 kts | 223° |
| 2026-04-21 21:44 | 49.71351 | -53.28034 | 32962 ft | 392 kts | 223° |
| 2026-04-21 21:44 | 49.69455 | -53.31039 | 32202 ft | 387 kts | 222° |
| 2026-04-21 21:45 | 49.67588 | -53.33994 | 31439 ft | 382 kts | 221° |
| 2026-04-21 21:45 | 49.65743 | -53.36909 | 30772 ft | 377 kts | 221° |
| 2026-04-21 21:45 | 49.63913 | -53.39796 | 30104 ft | 374 kts | 221° |
| 2026-04-21 21:45 | 49.62096 | -53.42656 | 29357 ft | 372 kts | 221° |
| 2026-04-21 21:46 | 49.60296 | -53.45485 | 28622 ft | 368 kts | 221° |
| 2026-04-21 21:46 | 49.58508 | -53.48298 | 27937 ft | 365 kts | 221° |
| 2026-04-21 21:46 | 49.56717 | -53.51108 | 27239 ft | 372 kts | 221° |
| 2026-04-21 21:46 | 49.54889 | -53.53968 | 26544 ft | 377 kts | 221° |
| 2026-04-21 21:47 | 49.53060 | -53.56837 | 25893 ft | 375 kts | 221° |
| 2026-04-21 21:47 | 49.51246 | -53.59694 | 25247 ft | 370 kts | 221° |
| 2026-04-21 21:47 | 49.49454 | -53.62514 | 24592 ft | 365 kts | 221° |
| 2026-04-21 21:47 | 49.47683 | -53.65286 | 23954 ft | 362 kts | 221° |
| 2026-04-21 21:48 | 49.45923 | -53.68033 | 23241 ft | 359 kts | 221° |
| 2026-04-21 21:48 | 49.44176 | -53.70760 | 22496 ft | 357 kts | 220° |
| 2026-04-21 21:48 | 49.42436 | -53.73474 | 21769 ft | 356 kts | 220° |
| 2026-04-21 21:48 | 49.40724 | -53.76141 | 21119 ft | 354 kts | 220° |
| 2026-04-21 21:49 | 49.38999 | -53.78826 | 20479 ft | 353 kts | 219° |
| 2026-04-21 21:49 | 49.37278 | -53.81499 | 19854 ft | 352 kts | 219° |
| 2026-04-21 21:49 | 49.35537 | -53.84202 | 19226 ft | 351 kts | 219° |
| 2026-04-21 21:49 | 49.33845 | -53.86825 | 18649 ft | 350 kts | 219° |
| 2026-04-21 21:50 | 49.32137 | -53.89471 | 17974 ft | 348 kts | 219° |
| 2026-04-21 21:50 | 49.30431 | -53.92103 | 17286 ft | 346 kts | 219° |
| 2026-04-21 21:50 | 49.28742 | -53.94707 | 16619 ft | 344 kts | 219° |
| 2026-04-21 21:50 | 49.27064 | -53.97295 | 15964 ft | 341 kts | 220° |
| 2026-04-21 21:51 | 49.25395 | -53.99870 | 15361 ft | 339 kts | 220° |
| 2026-04-21 21:51 | 49.23739 | -54.02423 | 14773 ft | 337 kts | 221° |
| 2026-04-21 21:51 | 49.22092 | -54.04960 | 14201 ft | 335 kts | 221° |
| 2026-04-21 21:51 | 49.20455 | -54.07479 | 13598 ft | 333 kts | 221° |
| 2026-04-21 21:52 | 49.18825 | -54.09986 | 12964 ft | 330 kts | 222° |
| 2026-04-21 21:52 | 49.17237 | -54.12432 | 12344 ft | 319 kts | 222° |
| 2026-04-21 21:52 | 49.15699 | -54.14798 | 11749 ft | 309 kts | 222° |
| 2026-04-21 21:52 | 49.14204 | -54.17087 | 11159 ft | 300 kts | 222° |
| 2026-04-21 21:53 | 49.12743 | -54.19316 | 10568 ft | 294 kts | 222° |
| 2026-04-21 21:53 | 49.11312 | -54.21493 | 9982 ft | 288 kts | 222° |
| 2026-04-21 21:53 | 49.09905 | -54.23630 | 9350 ft | 283 kts | 223° |
| 2026-04-21 21:53 | 49.08519 | -54.25736 | 8727 ft | 280 kts | 223° |
| 2026-04-21 21:54 | 49.07154 | -54.27811 | 8190 ft | 275 kts | 223° |
| 2026-04-21 21:54 | 49.05813 | -54.29850 | 7709 ft | 268 kts | 224° |
| 2026-04-21 21:54 | 49.04509 | -54.31832 | 7253 ft | 262 kts | 224° |
| 2026-04-21 21:54 | 49.03224 | -54.33782 | 6771 ft | 258 kts | 224° |
| 2026-04-21 21:55 | 49.01960 | -54.35696 | 6295 ft | 255 kts | 225° |
| 2026-04-21 21:55 | 49.00711 | -54.37584 | 5746 ft | 253 kts | 225° |
| 2026-04-21 21:55 | 48.99460 | -54.39472 | 5227 ft | 252 kts | 226° |
| 2026-04-21 21:55 | 48.98123 | -54.41195 | 4696 ft | 253 kts | 217° |
| 2026-04-21 21:56 | 48.96605 | -54.42577 | 4169 ft | 255 kts | 211° |
| 2026-04-21 21:56 | 48.95022 | -54.43802 | 3643 ft | 256 kts | 208° |
| 2026-04-21 21:56 | 48.93415 | -54.44964 | 3261 ft | 252 kts | 208° |
| 2026-04-21 21:56 | 48.91858 | -54.46047 | 3067 ft | 239 kts | 207° |
| 2026-04-21 21:57 | 48.90410 | -54.47102 | 3018 ft | 221 kts | 214° |
| 2026-04-21 21:57 | 48.89136 | -54.48394 | 3062 ft | 223 kts | 220° |
| 2026-04-21 21:57 | 48.87917 | -54.49833 | 3077 ft | 225 kts | 228° |
| 2026-04-21 21:57 | 48.86901 | -54.51615 | 3051 ft | 222 kts | 238° |
| 2026-04-21 21:58 | 48.86026 | -54.53544 | 3026 ft | 221 kts | 242° |
| 2026-04-21 21:58 | 48.85189 | -54.55490 | 3007 ft | 218 kts | 242° |
| 2026-04-21 21:58 | 48.84120 | -54.57172 | 2924 ft | 229 kts | 212° |
| 2026-04-21 21:58 | 48.82632 | -54.57978 | 2974 ft | 229 kts | 195° |
| 2026-04-21 21:59 | 48.81043 | -54.58427 | 3001 ft | 235 kts | 191° |
| 2026-04-21 21:59 | 48.79424 | -54.58793 | 2952 ft | 234 kts | 190° |
| 2026-04-21 21:59 | 48.77816 | -54.59132 | 2867 ft | 232 kts | 189° |
| 2026-04-21 21:59 | 48.76207 | -54.59043 | 2621 ft | 235 kts | 163° |
| 2026-04-21 22:00 | 48.74747 | -54.58070 | 2591 ft | 228 kts | 150° |
| 2026-04-21 22:00 | 48.73368 | -54.56844 | 2625 ft | 231 kts | 146° |
| 2026-04-21 22:00 | 48.71997 | -54.55552 | 2614 ft | 232 kts | 146° |
| 2026-04-21 22:00 | 48.70632 | -54.54248 | 2604 ft | 232 kts | 146° |
| 2026-04-21 22:01 | 48.69729 | -54.53383 | 2606 ft | 232 kts | 146° |
| 2026-04-21 22:01 | 48.68330 | -54.52172 | 2561 ft | 234 kts | 161° |
| 2026-04-21 22:01 | 48.66756 | -54.52008 | 2504 ft | 222 kts | 197° |
| 2026-04-21 22:01 | 48.65515 | -54.53136 | 2678 ft | 206 kts | 234° |
| 2026-04-21 22:02 | 48.64944 | -54.55111 | 2669 ft | 205 kts | 269° |
| 2026-04-21 22:02 | 48.65224 | -54.57119 | 2577 ft | 193 kts | 304° |
| 2026-04-21 22:02 | 48.66103 | -54.58607 | 2614 ft | 189 kts | 321° |
| 2026-04-21 22:02 | 48.67127 | -54.59864 | 2615 ft | 190 kts | 324° |
| 2026-04-21 22:03 | 48.68180 | -54.61064 | 2607 ft | 189 kts | 326° |
| 2026-04-21 22:03 | 48.69238 | -54.62247 | 2601 ft | 189 kts | 326° |
| 2026-04-21 22:03 | 48.70337 | -54.63290 | 2548 ft | 188 kts | 343° |
| 2026-04-21 22:03 | 48.71618 | -54.63200 | 2528 ft | 188 kts | 16° |
| 2026-04-21 22:04 | 48.72824 | -54.62478 | 2779 ft | 180 kts | 16° |
| 2026-04-21 22:04 | 48.73983 | -54.62026 | 2727 ft | 167 kts | 9° |
| 2026-04-21 22:04 | 48.75091 | -54.61721 | 2610 ft | 158 kts | 8° |
| 2026-04-21 22:04 | 48.76157 | -54.61429 | 2588 ft | 155 kts | 7° |
| 2026-04-21 22:05 | 48.77224 | -54.61129 | 2605 ft | 157 kts | 8° |
| 2026-04-21 22:05 | 48.78296 | -54.60817 | 2602 ft | 158 kts | 8° |
| 2026-04-21 22:05 | 48.79377 | -54.60503 | 2594 ft | 158 kts | 8° |
| 2026-04-21 22:05 | 48.80440 | -54.60194 | 2700 ft | 154 kts | 8° |
| 2026-04-21 22:06 | 48.81478 | -54.59889 | 2647 ft | 143 kts | 7° |
| 2026-04-21 22:06 | 48.82405 | -54.59631 | 2455 ft | 131 kts | 6° |
| 2026-04-21 22:06 | 48.83284 | -54.59384 | 2297 ft | 126 kts | 7° |
| 2026-04-21 22:06 | 48.84146 | -54.59136 | 2144 ft | 127 kts | 7° |
| 2026-04-21 22:07 | 48.85022 | -54.58859 | 1995 ft | 131 kts | 8° |
| 2026-04-21 22:07 | 48.85941 | -54.58576 | 1817 ft | 137 kts | 8° |
| 2026-04-21 22:07 | 48.86875 | -54.58278 | 1619 ft | 134 kts | 9° |
| 2026-04-21 22:07 | 48.87769 | -54.58001 | 1401 ft | 131 kts | 8° |
| 2026-04-21 22:08 | 48.88692 | -54.57739 | 1152 ft | 138 kts | 8° |
| 2026-04-21 22:08 | 48.89621 | -54.57481 | 945 ft | 135 kts | 9° |
| 2026-04-21 22:08 | 48.90525 | -54.57221 | 739 ft | 130 kts | 9° |
| 2026-04-21 22:08 | 48.91411 | -54.56969 | 613 ft | 128 kts | 9° |
| 2026-04-21 22:09 | 48.92284 | -54.56717 | 472 ft | 127 kts | 9° |
| 2026-04-21 22:09 | 48.93037 | -54.56500 | 454 ft | 91 kts | 9° |
| 2026-04-21 22:09 | 48.93529 | -54.56364 | 454 ft | 56 kts | 10° |
| 2026-04-21 22:09 | 48.93855 | -54.56268 | 458 ft | 42 kts | 10° |
| 2026-04-21 22:10 | 48.94122 | -54.56191 | 466 ft | 36 kts | 11° |
| 2026-04-21 22:10 | 48.94359 | -54.56122 | 466 ft | 33 kts | 12° |
| 2026-04-21 22:10 | 48.94582 | -54.56060 | 466 ft | 33 kts | 11° |
| 2026-04-21 22:10 | 48.94745 | -54.56012 | 461 ft | 10 kts | 6° |
| 2026-04-21 22:11 | 48.94787 | -54.56066 | 461 ft | 9 kts | 290° |
| 2026-04-21 22:11 | 48.94810 | -54.56174 | 462 ft | 13 kts | 287° |
| 2026-04-21 22:11 | 48.94842 | -54.56326 | 461 ft | 17 kts | 288° |
| 2026-04-21 22:11 | 48.94880 | -54.56503 | 464 ft | 19 kts | 288° |
| 2026-04-21 22:12 | 48.94924 | -54.56704 | 467 ft | 20 kts | 289° |
| 2026-04-21 22:12 | 48.94944 | -54.56861 | 470 ft | 11 kts | 248° |
| 2026-04-21 22:12 | 48.94868 | -54.56928 | 468 ft | 16 kts | 198° |
| 2026-04-21 22:12 | 48.94790 | -54.56967 | 470 ft | 10 kts | 198° |
| 2026-04-21 22:13 | 48.94734 | -54.56994 | 466 ft | 9 kts | 197° |
| 2026-04-21 22:13 | 48.94675 | -54.57005 | 470 ft | 10 kts | 179° |
| 2026-04-21 22:13 | 48.94604 | -54.57006 | 471 ft | 10 kts | 192° |
| 2026-04-21 22:13 | 48.94545 | -54.57083 | 466 ft | 13 kts | 242° |
| 2026-04-21 22:14 | 48.94510 | -54.57197 | 468 ft | 11 kts | 255° |
| 2026-04-21 22:14 | 48.94539 | -54.57282 | 469 ft | 8 kts | 331° |
| 2026-04-21 22:14 | 48.94581 | -54.57308 | 469 ft | 4 kts | 341° |
| 2026-04-21 22:14 | 48.94591 | -54.57313 | 473 ft | 0 kts | 341° |